Time;durP1;ratioP1;P1;durP2;ratioP2;P2;SDS_P1;SDS_P2;PMS_P1;PMS_P2;Temp;Humidity;BMP_temperature;BMP_pressure;BME280_temperature;BME280_humidity;BME280_pressure;Samples;Min_cycle;Max_cycle;Signal;HPM_P1;HPM_P2
2023/03/30 00:00:44;;;;;;;14.48;9.02;;;11.70;59.60;;;;;;4994850;28;20216;-74
2023/03/30 00:03:10;;;;;;;17.88;9.98;;;11.70;59.70;;;;;;4975462;28;20015;-74
2023/03/30 00:05:37;;;;;;;16.27;9.93;;;11.70;59.70;;;;;;4982467;28;20486;-74
2023/03/30 00:08:03;;;;;;;15.82;10.00;;;11.60;59.70;;;;;;4979918;28;20033;-74
2023/03/30 00:10:29;;;;;;;15.57;9.52;;;11.60;59.80;;;;;;4994404;28;20480;-74
2023/03/30 00:12:56;;;;;;;15.63;8.85;;;11.60;59.90;;;;;;4994507;28;20383;-75
2023/03/30 00:15:23;;;;;;;14.13;9.30;;;11.60;59.90;;;;;;4994504;28;20100;-74
2023/03/30 00:17:53;;;;;;;14.40;8.82;;;11.60;60.00;;;;;;4994291;28;20384;-74
2023/03/30 00:20:20;;;;;;;12.82;8.95;;;11.60;60.00;;;;;;4994388;28;20029;-74
2023/03/30 00:22:48;;;;;;;19.58;9.52;;;11.60;60.20;;;;;;4993264;28;20088;-74
2023/03/30 00:25:16;;;;;;;14.20;8.70;;;11.60;60.40;;;;;;4994199;28;20021;-74
2023/03/30 00:27:42;;;;;;;15.85;8.88;;;11.60;60.30;;;;;;4976800;28;20059;-74
2023/03/30 00:30:14;;;;;;;14.23;8.95;;;11.60;60.20;;;;;;4994335;28;20495;-74
2023/03/30 00:32:41;;;;;;;17.67;10.57;;;11.60;60.30;;;;;;4994194;28;20034;-75
2023/03/30 00:35:07;;;;;;;14.52;9.20;;;11.60;60.60;;;;;;4985794;28;20562;-74
2023/03/30 00:37:36;;;;;;;15.50;8.77;;;11.60;60.60;;;;;;4994061;28;20038;-74
2023/03/30 00:40:06;;;;;;;21.40;9.48;;;11.60;60.40;;;;;;4994105;28;20483;-74
2023/03/30 00:42:36;;;;;;;18.83;9.55;;;11.60;60.30;;;;;;4993426;28;20026;-74
2023/03/30 00:45:08;;;;;;;14.75;9.68;;;11.70;60.30;;;;;;4976590;28;20026;-74
2023/03/30 00:47:51;;;;;;;13.45;9.27;;;11.60;60.30;;;;;;4994080;28;20026;-74
2023/03/30 00:50:20;;;;;;;16.55;8.95;;;11.60;60.70;;;;;;4993999;28;20030;-74
2023/03/30 00:52:51;;;;;;;18.65;9.68;;;11.60;60.50;;;;;;4993659;28;20518;-74
2023/03/30 00:55:20;;;;;;;19.85;12.00;;;11.60;60.70;;;;;;4994033;28;20084;-74
2023/03/30 00:57:46;;;;;;;21.95;11.68;;;11.60;61.20;;;;;;4993847;28;20037;-74
2023/03/30 01:00:13;;;;;;;19.48;11.07;;;11.50;61.20;;;;;;4976258;28;20023;-74
2023/03/30 01:02:49;;;;;;;20.05;10.98;;;11.50;61.10;;;;;;4993368;28;20551;-74
2023/03/30 01:05:15;;;;;;;18.58;10.45;;;11.50;61.10;;;;;;4981795;28;20023;-74
2023/03/30 01:07:42;;;;;;;20.02;10.50;;;11.50;61.00;;;;;;4976356;28;20038;-75
2023/03/30 01:10:09;;;;;;;20.65;12.27;;;11.50;61.20;;;;;;4993633;28;20506;-74
2023/03/30 01:12:36;;;;;;;21.67;12.63;;;11.50;61.60;;;;;;4993527;28;20042;-74
2023/03/30 01:15:02;;;;;;;16.85;10.95;;;11.50;61.90;;;;;;4993488;28;20061;-74
2023/03/30 01:17:35;;;;;;;18.63;11.30;;;11.50;62.10;;;;;;4993242;28;20069;-74
2023/03/30 01:20:08;;;;;;;25.55;12.48;;;11.40;62.20;;;;;;4993601;28;20033;-74
2023/03/30 01:22:49;;;;;;;19.40;12.35;;;11.40;62.50;;;;;;4981298;28;20480;-74
2023/03/30 01:25:39;;;;;;;21.48;13.48;;;11.40;62.60;;;;;;4978333;28;20405;-74
2023/03/30 01:28:56;;;;;;;17.65;10.55;;;11.30;62.80;;;;;;4993372;28;20443;-74
2023/03/30 01:32:07;;;;;;;22.85;12.10;;;11.30;62.70;;;;;;4954257;29;20035;-75
2023/03/30 01:34:38;;;;;;;18.30;11.02;;;11.30;62.70;;;;;;4921977;29;20088;-74
2023/03/30 01:37:19;;;;;;;17.88;11.18;;;11.30;63.00;;;;;;4953082;29;20045;-75
2023/03/30 01:40:08;;;;;;;16.70;10.40;;;11.20;63.10;;;;;;4948331;29;20087;-75
2023/03/30 01:42:58;;;;;;;20.55;11.82;;;11.30;63.10;;;;;;4950639;29;20385;-74
2023/03/30 01:45:37;;;;;;;20.27;11.75;;;11.20;63.30;;;;;;4942711;29;20035;-74
2023/03/30 01:48:19;;;;;;;17.15;10.70;;;11.20;63.50;;;;;;4929700;29;20031;-75
2023/03/30 01:50:53;;;;;;;15.15;10.07;;;11.20;63.70;;;;;;4943973;29;20035;-74
2023/03/30 01:53:36;;;;;;;15.38;9.55;;;11.20;63.60;;;;;;4935501;29;20027;-74
2023/03/30 01:56:17;;;;;;;12.68;9.60;;;11.20;63.30;;;;;;4947456;29;20149;-74
2023/03/30 01:58:46;;;;;;;17.15;10.02;;;11.20;63.20;;;;;;4940133;29;20032;-74
2023/03/30 02:01:16;;;;;;;17.50;10.73;;;11.20;63.00;;;;;;4958575;28;20059;-74
2023/03/30 02:03:46;;;;;;;17.50;10.38;;;11.30;62.90;;;;;;4990626;28;20505;-74
2023/03/30 02:06:19;;;;;;;17.63;9.93;;;11.30;63.00;;;;;;4980585;28;20073;-74
2023/03/30 02:08:48;;;;;;;15.73;10.33;;;11.30;62.90;;;;;;4976381;28;20089;-74
2023/03/30 02:11:14;;;;;;;18.05;11.02;;;11.30;62.90;;;;;;4979509;28;20030;-75
2023/03/30 02:13:41;;;;;;;16.33;10.95;;;11.30;62.90;;;;;;4996802;28;20169;-74
2023/03/30 02:16:36;;;;;;;18.05;9.73;;;11.20;62.90;;;;;;4996698;28;20384;-74
2023/03/30 02:19:03;;;;;;;;;;;11.20;63.00;;;;;;4997068;28;20037;-74
2023/03/30 02:21:30;;;;;;;16.65;10.30;;;11.30;62.50;;;;;;4996345;28;19906;-73
2023/03/30 02:23:57;;;;;;;17.65;9.52;;;11.30;62.60;;;;;;4996420;28;20076;-74
2023/03/30 02:26:23;;;;;;;15.05;9.68;;;11.30;62.70;;;;;;4996396;28;20423;-74
2023/03/30 02:28:50;;;;;;;16.70;9.82;;;11.30;62.70;;;;;;4996319;28;20088;-74
2023/03/30 02:31:16;;;;;;;20.05;9.98;;;11.30;62.70;;;;;;4996339;28;20097;-74
2023/03/30 02:34:12;;;;;;;21.75;12.15;;;11.30;62.70;;;;;;4996121;28;20116;-74
2023/03/30 02:36:51;;;;;;;21.20;13.07;;;11.30;63.00;;;;;;4971312;28;20034;-74
2023/03/30 02:39:35;;;;;;;20.25;12.93;;;11.30;63.00;;;;;;4978238;28;20023;-74
2023/03/30 02:42:35;;;;;;;16.17;11.25;;;11.30;63.00;;;;;;4982602;28;20556;-74
2023/03/30 02:45:28;;;;;;;22.10;12.95;;;11.40;63.00;;;;;;4996143;28;20026;-74
2023/03/30 02:47:56;;;;;;;18.75;11.38;;;11.40;62.90;;;;;;4996165;28;20022;-74
2023/03/30 02:50:49;;;;;;;16.73;11.77;;;11.40;62.70;;;;;;4995786;28;20027;-74
2023/03/30 02:53:42;;;;;;;19.83;11.50;;;11.40;62.50;;;;;;4980912;28;20431;-74
2023/03/30 02:56:21;;;;;;;18.13;11.13;;;11.40;62.40;;;;;;4995819;28;20035;-74
2023/03/30 02:58:50;;;;;;;21.85;11.30;;;11.40;62.40;;;;;;4995688;28;20026;-74
2023/03/30 03:01:49;;;;;;;20.50;13.75;;;11.40;62.30;;;;;;4995882;28;20022;-74
2023/03/30 03:04:17;;;;;;;19.13;13.85;;;11.40;62.50;;;;;;4974596;28;20553;-74
2023/03/30 03:06:44;;;;;;;18.23;12.38;;;11.40;62.60;;;;;;4992334;28;20026;-74
2023/03/30 03:09:10;;;;;;;19.90;12.98;;;11.40;62.60;;;;;;4995628;28;20015;-74
2023/03/30 03:11:36;;;;;;;28.27;17.75;;;11.40;62.60;;;;;;4995682;28;20105;-74
2023/03/30 03:14:01;;;;;;;24.20;16.40;;;11.40;62.80;;;;;;4995560;28;20394;-74
2023/03/30 03:16:27;;;;;;;23.15;14.88;;;11.40;63.20;;;;;;4995080;28;20030;-74
2023/03/30 03:18:53;;;;;;;22.25;14.63;;;11.40;63.30;;;;;;4995301;28;20034;-74
2023/03/30 03:21:19;;;;;;;26.85;15.40;;;11.30;63.40;;;;;;4995060;28;20019;-75
2023/03/30 03:23:47;;;;;;;22.30;14.32;;;11.30;63.60;;;;;;4977920;28;20333;-75
2023/03/30 03:26:13;;;;;;;16.38;11.60;;;11.40;63.60;;;;;;4995140;28;20018;-75
2023/03/30 03:28:39;;;;;;;21.25;13.27;;;11.40;63.50;;;;;;4995045;28;20404;-74
2023/03/30 03:31:05;;;;;;;18.02;12.45;;;11.40;63.40;;;;;;4995083;28;20034;-75
2023/03/30 03:33:31;;;;;;;20.92;14.23;;;11.40;63.30;;;;;;4994811;28;20031;-75
2023/03/30 03:35:59;;;;;;;21.65;13.88;;;11.40;63.30;;;;;;4994916;28;20034;-74
2023/03/30 03:38:26;;;;;;;22.65;12.85;;;11.40;63.20;;;;;;4977321;28;20057;-74
2023/03/30 03:40:54;;;;;;;20.15;12.50;;;11.40;63.20;;;;;;4994877;28;20038;-74
2023/03/30 03:43:20;;;;;;;18.20;12.13;;;11.50;63.00;;;;;;4994931;28;20439;-74
2023/03/30 03:45:47;;;;;;;19.30;12.77;;;11.50;62.80;;;;;;4999707;28;20499;-75
2023/03/30 03:48:15;;;;;;;16.45;11.60;;;11.50;62.80;;;;;;5002274;28;20034;-74
2023/03/30 03:50:41;;;;;;;17.75;11.20;;;11.50;62.70;;;;;;4994368;28;20035;-74
2023/03/30 03:53:07;;;;;;;21.23;13.60;;;11.50;62.60;;;;;;4994040;28;20025;-74
2023/03/30 03:55:34;;;;;;;21.25;12.40;;;11.50;62.60;;;;;;4994719;28;20030;-74
2023/03/30 03:58:04;;;;;;;20.13;11.82;;;11.50;62.60;;;;;;4976886;28;20395;-75
2023/03/30 04:00:30;;;;;;;22.55;13.38;;;11.50;62.50;;;;;;4991476;28;20022;-75
2023/03/30 04:02:57;;;;;;;18.40;11.80;;;11.50;62.40;;;;;;5002508;28;20030;-74
2023/03/30 04:05:23;;;;;;;17.13;11.65;;;11.60;62.40;;;;;;4986379;28;20093;-74
2023/03/30 04:07:52;;;;;;;14.88;11.07;;;11.60;62.30;;;;;;4973696;28;20046;-74
2023/03/30 04:10:19;;;;;;;17.45;12.18;;;11.60;62.30;;;;;;5001721;28;20053;-74
2023/03/30 04:12:45;;;;;;;21.23;13.27;;;11.60;62.20;;;;;;4991579;28;20037;-75
2023/03/30 04:15:11;;;;;;;26.00;14.50;;;11.60;62.40;;;;;;5004958;28;20392;-74
2023/03/30 04:17:37;;;;;;;20.23;12.90;;;11.60;62.70;;;;;;4970752;28;20034;-74
2023/03/30 04:20:09;;;;;;;20.52;12.68;;;11.60;62.70;;;;;;4994108;28;20025;-74
2023/03/30 04:22:36;;;;;;;22.80;13.35;;;11.60;62.70;;;;;;4994275;28;20424;-75
2023/03/30 04:25:05;;;;;;;21.88;13.63;;;11.60;62.70;;;;;;4994630;28;20036;-75
2023/03/30 04:27:32;;;;;;;18.75;12.68;;;11.60;62.70;;;;;;4993286;28;20055;-74
2023/03/30 04:30:00;;;;;;;17.73;12.07;;;11.50;62.60;;;;;;4974987;28;20036;-74
2023/03/30 04:32:26;;;;;;;19.33;12.25;;;11.50;62.50;;;;;;4996622;28;20432;-75
2023/03/30 04:34:53;;;;;;;21.77;13.18;;;11.50;62.50;;;;;;4983906;28;20121;-74
2023/03/30 04:37:29;;;;;;;20.92;12.73;;;11.60;62.60;;;;;;4979919;28;20031;-74
2023/03/30 04:39:56;;;;;;;20.10;12.45;;;11.60;62.60;;;;;;4979561;28;20053;-74
2023/03/30 04:42:28;;;;;;;21.83;14.13;;;11.60;62.60;;;;;;4974562;28;20388;-75
2023/03/30 04:44:58;;;;;;;19.27;12.63;;;11.50;62.80;;;;;;4957591;28;20022;-75
2023/03/30 04:47:25;;;;;;;16.60;11.60;;;11.50;62.70;;;;;;4989422;28;20032;-74
2023/03/30 04:49:50;;;;;;;16.60;11.27;;;11.50;62.70;;;;;;4990245;28;20030;-75
2023/03/30 04:52:16;;;;;;;17.55;11.02;;;11.50;62.70;;;;;;4971484;28;20492;-75
2023/03/30 04:54:42;;;;;;;17.63;10.90;;;11.50;62.60;;;;;;4941961;28;20041;-75
2023/03/30 04:57:09;;;;;;;24.52;13.25;;;11.50;62.70;;;;;;4974132;28;20391;-74
2023/03/30 04:59:36;;;;;;;22.15;12.40;;;11.40;62.90;;;;;;4977965;28;20037;-74
2023/03/30 05:02:02;;;;;;;17.67;13.00;;;11.40;63.00;;;;;;4992098;28;20105;-74
2023/03/30 05:04:28;;;;;;;20.30;12.32;;;11.40;63.20;;;;;;4988148;28;20029;-74
2023/03/30 05:06:56;;;;;;;17.42;11.45;;;11.30;63.30;;;;;;4975853;28;20110;-75
2023/03/30 05:09:22;;;;;;;17.88;12.68;;;11.30;63.40;;;;;;4962553;28;20014;-74
2023/03/30 05:11:49;;;;;;;16.23;11.25;;;11.30;63.50;;;;;;4975208;28;20076;-74
2023/03/30 05:14:15;;;;;;;15.68;10.90;;;11.30;63.50;;;;;;4981266;28;20031;-74
2023/03/30 05:16:41;;;;;;;17.15;11.32;;;11.30;63.50;;;;;;4961715;28;20117;-75
2023/03/30 05:19:07;;;;;;;22.90;12.93;;;11.30;63.50;;;;;;4969498;28;20075;-74
2023/03/30 05:21:33;;;;;;;20.52;11.95;;;11.30;63.40;;;;;;4986487;28;20125;-74
2023/03/30 05:23:58;;;;;;;18.05;12.13;;;11.30;63.50;;;;;;4990737;28;20030;-75
2023/03/30 05:26:25;;;;;;;22.65;11.80;;;11.40;63.70;;;;;;4974156;28;20031;-75
2023/03/30 05:28:51;;;;;;;18.77;11.90;;;11.40;63.60;;;;;;4987073;28;20027;-75
2023/03/30 05:31:18;;;;;;;21.70;12.82;;;11.40;63.60;;;;;;4980561;28;20486;-74
2023/03/30 05:33:44;;;;;;;22.95;13.30;;;11.40;63.50;;;;;;4985372;28;20030;-75
2023/03/30 05:36:10;;;;;;;20.58;12.50;;;11.40;63.50;;;;;;4973112;28;20445;-75
2023/03/30 05:38:36;;;;;;;17.48;12.07;;;11.40;63.40;;;;;;4967991;28;20448;-74
2023/03/30 05:41:05;;;;;;;20.30;12.35;;;11.40;63.30;;;;;;4985677;28;20019;-75
2023/03/30 05:43:35;;;;;;;21.98;12.40;;;11.50;63.30;;;;;;4979555;28;20436;-74
2023/03/30 05:46:02;;;;;;;18.30;12.32;;;11.50;63.20;;;;;;4981060;28;20044;-75
2023/03/30 05:48:28;;;;;;;21.75;13.85;;;11.50;63.30;;;;;;4986216;28;20027;-75
2023/03/30 05:50:54;;;;;;;23.30;13.38;;;11.50;63.50;;;;;;4980278;28;20022;-74
2023/03/30 05:53:20;;;;;;;21.50;11.40;;;11.40;63.70;;;;;;4982343;28;20027;-74
2023/03/30 05:55:47;;;;;;;20.48;12.30;;;11.50;63.80;;;;;;4980770;28;20077;-74
2023/03/30 05:58:15;;;;;;;20.50;13.07;;;11.50;63.80;;;;;;4981725;28;20033;-75
2023/03/30 06:00:43;;;;;;;21.42;12.57;;;11.50;63.70;;;;;;4959731;28;20031;-75
2023/03/30 06:03:10;;;;;;;20.98;13.23;;;11.50;63.80;;;;;;4958746;28;20106;-74
2023/03/30 06:05:38;;;;;;;20.02;12.68;;;11.60;63.80;;;;;;4988573;28;20429;-75
2023/03/30 06:08:06;;;;;;;20.00;13.60;;;11.60;63.80;;;;;;4989742;28;20030;-74
2023/03/30 06:10:33;;;;;;;22.98;13.23;;;11.70;63.70;;;;;;4964943;28;20041;-74
2023/03/30 06:13:00;;;;;;;18.38;12.73;;;11.70;63.50;;;;;;4961168;28;20026;-75
2023/03/30 06:15:26;;;;;;;20.48;13.02;;;11.70;63.50;;;;;;4988333;28;20031;-74
2023/03/30 06:17:52;;;;;;;21.52;14.77;;;11.80;63.60;;;;;;4991978;28;20056;-75
2023/03/30 06:20:20;;;;;;;25.05;15.38;;;11.80;63.80;;;;;;4988317;28;20441;-74
2023/03/30 06:22:49;;;;;;;20.25;13.63;;;11.90;63.90;;;;;;4973728;28;20023;-75
2023/03/30 06:25:15;;;;;;;23.92;13.38;;;11.90;63.80;;;;;;4984770;28;20053;-73
2023/03/30 06:27:41;;;;;;;23.20;14.40;;;12.00;63.80;;;;;;4980035;28;20066;-74
2023/03/30 06:30:10;;;;;;;18.33;13.00;;;12.10;63.80;;;;;;4991350;28;20034;-74
2023/03/30 06:32:36;;;;;;;18.60;12.45;;;12.30;63.90;;;;;;4971480;28;20038;-75
2023/03/30 06:35:03;;;;;;;20.10;13.27;;;12.40;63.60;;;;;;4979202;28;20503;-73
2023/03/30 06:37:33;;;;;;;20.17;13.25;;;12.50;63.20;;;;;;4995023;28;20030;-73
2023/03/30 06:39:59;;;;;;;23.73;13.65;;;12.70;63.00;;;;;;4990775;28;20023;-73
2023/03/30 06:42:27;;;;;;;16.80;12.35;;;12.80;62.60;;;;;;4997431;28;20124;-74
2023/03/30 06:44:53;;;;;;;30.42;13.52;;;12.90;62.20;;;;;;5003106;28;20048;-74
2023/03/30 06:47:21;;;;;;;25.02;13.75;;;13.00;61.70;;;;;;4995808;28;20077;-74
2023/03/30 06:49:47;;;;;;;19.75;12.85;;;13.10;61.30;;;;;;4982020;28;20085;-74
2023/03/30 06:52:13;;;;;;;27.83;13.60;;;13.20;60.70;;;;;;4995302;28;20109;-74
2023/03/30 06:54:40;;;;;;;31.50;14.25;;;13.30;60.20;;;;;;5000041;28;20121;-74
2023/03/30 06:57:06;;;;;;;24.75;12.23;;;13.30;59.70;;;;;;4995726;28;20030;-74
2023/03/30 06:59:33;;;;;;;22.50;13.45;;;13.40;59.30;;;;;;4982313;28;20117;-74
2023/03/30 07:01:59;;;;;;;23.88;13.55;;;13.30;58.90;;;;;;5001592;28;20023;-74
2023/03/30 07:04:25;;;;;;;18.23;12.63;;;13.40;58.70;;;;;;5003605;28;20101;-74
2023/03/30 07:06:51;;;;;;;18.60;12.38;;;13.40;58.60;;;;;;4997521;28;20109;-74
2023/03/30 07:09:17;;;;;;;22.67;12.02;;;13.40;58.50;;;;;;4984770;28;20027;-74
2023/03/30 07:11:43;;;;;;;18.48;12.43;;;13.40;58.50;;;;;;4997213;28;20030;-75
2023/03/30 07:14:11;;;;;;;20.13;10.93;;;13.50;58.70;;;;;;4978715;28;20394;-74
2023/03/30 07:16:37;;;;;;;21.38;11.55;;;13.50;58.80;;;;;;5005590;28;20072;-74
2023/03/30 07:19:04;;;;;;;19.42;10.98;;;13.50;58.80;;;;;;5000359;28;20117;-74
2023/03/30 07:21:31;;;;;;;19.23;10.63;;;13.50;58.70;;;;;;4994907;28;20022;-74
2023/03/30 07:24:00;;;;;;;19.10;11.27;;;13.50;58.70;;;;;;4995251;28;20384;-74
2023/03/30 07:26:27;;;;;;;20.88;11.98;;;13.50;58.80;;;;;;4979566;28;20062;-75
2023/03/30 07:28:55;;;;;;;20.77;10.90;;;13.50;58.70;;;;;;4992600;28;20041;-74
2023/03/30 07:31:22;;;;;;;21.65;11.20;;;13.50;58.70;;;;;;4999416;28;20026;-73
2023/03/30 07:33:48;;;;;;;21.48;11.35;;;13.50;58.70;;;;;;4999559;28;20392;-73
2023/03/30 07:36:14;;;;;;;17.92;11.38;;;13.50;58.60;;;;;;4984993;28;20408;-73
2023/03/30 07:38:39;;;;;;;16.33;9.85;;;13.50;58.60;;;;;;4982871;28;20039;-73
2023/03/30 07:41:07;;;;;;;15.02;9.48;;;13.50;58.70;;;;;;4993599;28;20019;-73
2023/03/30 07:43:33;;;;;;;21.98;10.88;;;13.50;58.70;;;;;;4994674;28;20034;-74
2023/03/30 07:45:59;;;;;;;19.88;10.27;;;13.60;58.80;;;;;;4994378;28;20491;-73
2023/03/30 07:48:25;;;;;;;17.90;10.65;;;13.60;59.00;;;;;;4994146;28;20113;-74
2023/03/30 07:50:59;;;;;;;21.52;10.18;;;13.60;59.00;;;;;;4993563;28;20026;-73
2023/03/30 07:53:25;;;;;;;22.75;9.77;;;13.70;59.10;;;;;;4979114;28;20121;-73
2023/03/30 07:55:51;;;;;;;22.45;10.57;;;13.70;59.10;;;;;;4983426;28;20073;-73
2023/03/30 07:58:18;;;;;;;25.98;10.82;;;13.80;59.10;;;;;;4985554;28;20542;-73
2023/03/30 08:00:43;;;;;;;16.60;10.38;;;13.90;59.80;;;;;;4990672;28;20027;-73
2023/03/30 08:03:10;;;;;;;25.63;12.38;;;13.90;59.20;;;;;;4978832;28;20022;-73
2023/03/30 08:05:36;;;;;;;18.80;11.40;;;14.00;59.80;;;;;;4994551;28;20023;-73
2023/03/30 08:08:02;;;;;;;17.60;10.70;;;14.00;59.10;;;;;;4990523;28;20538;-73
2023/03/30 08:10:28;;;;;;;23.92;12.43;;;14.10;59.20;;;;;;4992733;28;20034;-73
2023/03/30 08:12:54;;;;;;;22.85;12.10;;;14.20;59.30;;;;;;4994641;28;20098;-74
2023/03/30 08:15:20;;;;;;;21.80;11.57;;;14.20;59.10;;;;;;4994627;28;20027;-74
2023/03/30 08:17:46;;;;;;;20.33;11.73;;;14.30;59.10;;;;;;4994445;28;20026;-74
2023/03/30 08:20:12;;;;;;;31.85;10.57;;;14.30;59.00;;;;;;4993660;28;20018;-74
2023/03/30 08:22:38;;;;;;;18.35;10.15;;;14.40;58.90;;;;;;4993892;28;20101;-74
2023/03/30 08:25:04;;;;;;;19.15;11.38;;;14.40;58.80;;;;;;4978157;28;20026;-74
2023/03/30 08:27:30;;;;;;;22.83;10.63;;;14.40;58.70;;;;;;4994376;28;20026;-74
2023/03/30 08:29:56;;;;;;;16.42;10.52;;;14.50;58.60;;;;;;4976934;28;20033;-74
2023/03/30 08:32:22;;;;;;;19.10;11.30;;;14.50;58.40;;;;;;4994124;28;20112;-74
2023/03/30 08:34:49;;;;;;;20.20;10.80;;;14.40;58.20;;;;;;4994094;28;20443;-74
2023/03/30 08:37:15;;;;;;;21.23;10.35;;;14.40;58.20;;;;;;4986628;28;20065;-74
2023/03/30 08:39:41;;;;;;;22.90;10.45;;;14.40;58.30;;;;;;4993665;28;20040;-73
2023/03/30 08:42:24;;;;;;;25.40;11.35;;;14.40;58.30;;;;;;4994087;28;20483;-73
2023/03/30 08:44:55;;;;;;;18.13;10.57;;;14.40;58.30;;;;;;4994248;28;20073;-73
2023/03/30 08:47:48;;;;;;;20.13;10.50;;;14.40;58.40;;;;;;4976958;28;20273;-73
2023/03/30 08:50:21;;;;;;;16.75;10.27;;;14.40;58.70;;;;;;4975120;28;20038;-74
2023/03/30 08:52:49;;;;;;;19.60;12.07;;;14.40;58.80;;;;;;4977695;28;20050;-73
2023/03/30 08:55:23;;;;;;;22.17;12.25;;;14.50;59.00;;;;;;4993763;28;20026;-73
2023/03/30 08:57:57;;;;;;;18.25;11.65;;;14.40;58.90;;;;;;4978990;28;20044;-74
2023/03/30 09:00:45;;;;;;;19.63;10.60;;;14.50;58.90;;;;;;4993281;28;20023;-73
2023/03/30 09:03:22;;;;;;;16.83;10.82;;;14.60;59.30;;;;;;4977839;28;20014;-74
2023/03/30 09:05:55;;;;;;;18.48;11.10;;;14.60;59.40;;;;;;4993813;28;20090;-74
2023/03/30 09:08:26;;;;;;;16.20;10.60;;;14.70;59.40;;;;;;4986997;28;20019;-73
2023/03/30 09:10:59;;;;;;;16.63;10.52;;;14.80;59.40;;;;;;4991427;28;20053;-72
2023/03/30 09:13:31;;;;;;;15.70;10.70;;;14.90;59.40;;;;;;4993560;28;20073;-74
2023/03/30 09:16:05;;;;;;;19.15;10.63;;;15.00;59.20;;;;;;4993365;28;20045;-73
2023/03/30 09:18:34;;;;;;;17.70;10.93;;;15.10;59.00;;;;;;4993563;28;20030;-72
2023/03/30 09:21:02;;;;;;;16.73;12.30;;;15.20;58.80;;;;;;4991176;28;20538;-73
2023/03/30 09:23:30;;;;;;;16.98;11.75;;;15.20;58.60;;;;;;4980121;28;20476;-73
2023/03/30 09:26:15;;;;;;;21.27;12.75;;;15.20;58.30;;;;;;4993487;28;20027;-73
2023/03/30 09:28:59;;;;;;;;;;;15.30;58.40;;;;;;4993877;28;20054;-73
2023/03/30 09:31:47;;;;;;;27.00;13.80;;;15.30;58.50;;;;;;4977325;28;19964;-73
2023/03/30 09:34:27;;;;;;;18.38;12.65;;;15.30;58.50;;;;;;4985747;28;20047;-73
2023/03/30 09:36:58;;;;;;;24.45;13.90;;;15.30;58.70;;;;;;4993123;28;20105;-73
2023/03/30 09:39:27;;;;;;;24.70;15.68;;;15.40;59.00;;;;;;4989906;28;20113;-74
2023/03/30 09:42:14;;;;;;;28.02;16.23;;;15.40;59.40;;;;;;4993477;28;20030;-73
2023/03/30 09:45:00;;;;;;;28.58;16.90;;;15.40;58.40;;;;;;4975729;28;20531;-72
2023/03/30 09:47:44;;;;;;;37.63;19.95;;;15.40;58.30;;;;;;4987129;28;20022;-73
2023/03/30 09:50:20;;;;;;;34.35;20.50;;;15.40;58.30;;;;;;4993038;28;20094;-74
2023/03/30 09:53:01;;;;;;;35.00;18.63;;;15.40;58.10;;;;;;4992827;28;20026;-73
2023/03/30 09:55:36;;;;;;;37.83;18.73;;;15.40;58.10;;;;;;4983441;28;20356;-74
2023/03/30 09:58:17;;;;;;;39.30;20.25;;;15.40;58.20;;;;;;4977832;28;20026;-73
2023/03/30 10:00:44;;;;;;;31.30;19.00;;;15.40;58.30;;;;;;4985850;28;20028;-74
2023/03/30 10:03:21;;;;;;;36.60;20.20;;;15.40;58.30;;;;;;4997810;28;20022;-74
2023/03/30 10:06:06;;;;;;;36.38;21.17;;;15.40;58.50;;;;;;4979876;28;20113;-74
2023/03/30 10:08:32;;;;;;;;;;;15.50;58.00;;;;;;4997587;28;20030;-74
2023/03/30 10:10:59;;;;;;;32.53;20.42;;;15.50;58.00;;;;;;5000253;28;19964;-73
2023/03/30 10:13:39;;;;;;;35.05;21.75;;;15.50;57.80;;;;;;4997096;28;20026;-73
2023/03/30 10:16:07;;;;;;;32.55;20.23;;;15.60;58.30;;;;;;4997096;28;20029;-77
2023/03/30 10:18:42;;;;;;;38.03;19.90;;;15.60;58.80;;;;;;4979407;28;20034;-74
2023/03/30 10:21:21;;;;;;;29.52;16.83;;;15.70;59.00;;;;;;4996829;28;20491;-75
2023/03/30 10:24:02;;;;;;;29.88;16.85;;;15.90;59.40;;;;;;4979433;28;20475;-73
2023/03/30 10:26:29;;;;;;;27.13;17.27;;;16.20;59.50;;;;;;4991121;28;20125;-74
2023/03/30 10:29:04;;;;;;;24.17;15.50;;;16.50;59.60;;;;;;4978804;28;20030;-73
2023/03/30 10:31:34;;;;;;;27.10;14.60;;;16.70;59.40;;;;;;4994424;28;20476;-75
2023/03/30 10:34:01;;;;;;;24.73;15.63;;;17.00;58.90;;;;;;4996643;28;20038;-74
2023/03/30 10:36:31;;;;;;;28.90;15.98;;;17.10;57.80;;;;;;4996434;28;20065;-72
2023/03/30 10:39:20;;;;;;;29.33;15.25;;;17.20;57.10;;;;;;4995154;28;20042;-72
2023/03/30 10:41:48;;;;;;;25.42;14.98;;;17.30;56.90;;;;;;4994390;28;20022;-73
2023/03/30 10:44:29;;;;;;;32.92;16.48;;;17.30;56.90;;;;;;4996032;28;20038;-74
2023/03/30 10:47:20;;;;;;;25.92;14.88;;;17.20;56.60;;;;;;4996095;28;20026;-73
2023/03/30 10:50:08;;;;;;;25.48;15.80;;;17.30;56.70;;;;;;4995018;28;20019;-73
2023/03/30 10:52:47;;;;;;;25.05;14.57;;;17.30;57.50;;;;;;4995771;28;20023;-74
2023/03/30 10:55:42;;;;;;;26.80;15.65;;;17.40;57.70;;;;;;4996042;28;20026;-74
2023/03/30 10:58:40;;;;;;;22.35;13.73;;;17.50;57.40;;;;;;4987290;28;20038;-72
2023/03/30 11:01:06;;;;;;;23.52;12.00;;;17.50;56.70;;;;;;4996012;28;20097;-74
2023/03/30 11:03:32;;;;;;;22.33;13.15;;;17.70;56.80;;;;;;4993472;28;20126;-74
2023/03/30 11:06:11;;;;;;;28.63;14.90;;;17.60;56.40;;;;;;4995534;28;20022;-74
2023/03/30 11:08:47;;;;;;;22.30;14.63;;;17.60;56.00;;;;;;5010319;28;20030;-74
2023/03/30 11:11:21;;;;;;;21.98;13.45;;;17.60;56.20;;;;;;4978241;28;20069;-73
2023/03/30 11:13:56;;;;;;;21.65;12.70;;;17.70;56.80;;;;;;4995342;28;20496;-73
2023/03/30 11:16:28;;;;;;;22.52;12.98;;;17.80;57.40;;;;;;4976115;28;20038;-73
2023/03/30 11:19:01;;;;;;;21.38;13.43;;;18.00;57.60;;;;;;4995558;28;20036;-74
2023/03/30 11:21:56;;;;;;;21.60;11.93;;;18.20;57.20;;;;;;4995182;28;20041;-73
2023/03/30 11:24:27;;;;;;;24.05;12.90;;;18.40;56.70;;;;;;4980224;28;20369;-74
2023/03/30 11:27:14;;;;;;;23.92;14.50;;;18.50;55.90;;;;;;4995439;28;20498;-73
2023/03/30 11:29:48;;;;;;;24.08;11.57;;;18.70;55.90;;;;;;4994298;28;20483;-74
2023/03/30 11:32:31;;;;;;;21.02;11.02;;;18.80;55.90;;;;;;4995173;28;20499;-73
2023/03/30 11:35:09;;;;;;;20.48;10.93;;;19.00;55.30;;;;;;4995753;28;20402;-73
2023/03/30 11:37:39;;;;;;;22.25;9.40;;;19.20;54.40;;;;;;4990835;28;20041;-73
2023/03/30 11:40:40;;;;;;;20.13;9.00;;;19.30;54.70;;;;;;4994996;28;20384;-73
2023/03/30 11:43:10;;;;;;;23.33;10.77;;;19.40;54.90;;;;;;4979452;28;20022;-73
2023/03/30 11:45:45;;;;;;;22.75;11.55;;;19.60;54.40;;;;;;4976976;28;20026;-73
2023/03/30 11:48:10;;;;;;;19.63;9.93;;;19.70;53.80;;;;;;4994356;28;20109;-73
2023/03/30 11:51:07;;;;;;;16.98;9.20;;;19.70;54.00;;;;;;4988516;28;20122;-73
2023/03/30 11:54:05;;;;;;;22.73;10.77;;;19.80;54.00;;;;;;4985870;28;20105;-74
2023/03/30 11:56:47;;;;;;;16.08;9.07;;;19.90;53.50;;;;;;4983864;28;20039;-74
2023/03/30 11:59:28;;;;;;;25.35;9.27;;;20.00;53.60;;;;;;4990129;28;20498;-74
2023/03/30 12:02:19;;;;;;;19.85;9.05;;;20.10;53.50;;;;;;4993730;28;20029;-74
2023/03/30 12:05:06;;;;;;;15.10;7.82;;;20.20;53.90;;;;;;4986280;28;20022;-75
2023/03/30 12:07:44;;;;;;;19.25;7.95;;;20.40;53.40;;;;;;4986065;28;20037;-74
2023/03/30 12:10:36;;;;;;;21.23;9.70;;;20.40;53.10;;;;;;4980775;28;20034;-75
2023/03/30 12:13:02;;;;;;;20.33;8.25;;;20.50;52.40;;;;;;4991103;28;20371;-75
2023/03/30 12:16:11;;;;;;;20.13;6.97;;;20.50;52.50;;;;;;4976864;28;20026;-74
2023/03/30 12:19:14;;;;;;;12.05;6.97;;;20.60;52.70;;;;;;4980680;28;20042;-74
2023/03/30 12:21:56;;;;;;;15.10;6.25;;;20.70;52.30;;;;;;4976055;28;20034;-74
2023/03/30 12:24:26;;;;;;;10.93;5.45;;;20.90;52.20;;;;;;4994226;28;20027;-73
2023/03/30 12:26:52;;;;;;;15.95;6.70;;;20.90;51.70;;;;;;4976762;28;20018;-75
2023/03/30 12:29:19;;;;;;;17.10;6.78;;;21.10;51.40;;;;;;4986647;28;20502;-75
2023/03/30 12:32:03;;;;;;;12.68;5.38;;;21.10;51.10;;;;;;4975850;28;20034;-74
2023/03/30 12:34:39;;;;;;;13.75;6.47;;;21.20;51.10;;;;;;4976396;28;20488;-74
2023/03/30 12:37:17;;;;;;;17.23;5.97;;;21.30;50.80;;;;;;4992369;28;20038;-74
2023/03/30 12:40:03;;;;;;;11.13;5.40;;;21.40;50.90;;;;;;4994199;28;20022;-74
2023/03/30 12:42:35;;;;;;;10.68;5.18;;;21.50;50.40;;;;;;4976255;28;20080;-74
2023/03/30 12:45:04;;;;;;;11.68;5.25;;;21.60;50.90;;;;;;4993942;28;20026;-74
2023/03/30 12:47:57;;;;;;;10.57;5.65;;;21.70;50.50;;;;;;4993925;28;20161;-74
2023/03/30 12:50:39;;;;;;;13.48;6.05;;;21.90;50.60;;;;;;4993290;28;20057;-74
2023/03/30 12:53:16;;;;;;;16.20;5.47;;;22.10;50.90;;;;;;4993007;28;20109;-75
2023/03/30 12:55:52;;;;;;;16.48;5.45;;;22.20;49.90;;;;;;4993599;28;20182;-75